sensor_id;sensor_type;location;lat;lon;timestamp;temperature;humidity
17887;DHT22;9069;52.044;7.472;2023-02-28T00:00:37;4.30;76.20
17887;DHT22;9069;52.044;7.472;2023-02-28T00:03:04;4.20;76.20
17887;DHT22;9069;52.044;7.472;2023-02-28T00:05:31;4.20;76.30
17887;DHT22;9069;52.044;7.472;2023-02-28T00:07:57;4.20;76.40
17887;DHT22;9069;52.044;7.472;2023-02-28T00:10:27;4.20;76.50
17887;DHT22;9069;52.044;7.472;2023-02-28T00:12:55;4.20;76.70
17887;DHT22;9069;52.044;7.472;2023-02-28T00:15:23;4.10;76.60
17887;DHT22;9069;52.044;7.472;2023-02-28T00:17:51;4.10;76.80
17887;DHT22;9069;52.044;7.472;2023-02-28T00:20:18;4.10;77.00
17887;DHT22;9069;52.044;7.472;2023-02-28T00:22:47;4.10;77.00
17887;DHT22;9069;52.044;7.472;2023-02-28T00:25:17;4.10;77.00
17887;DHT22;9069;52.044;7.472;2023-02-28T00:27:45;4.10;77.10
17887;DHT22;9069;52.044;7.472;2023-02-28T00:30:15;4.10;77.20
17887;DHT22;9069;52.044;7.472;2023-02-28T00:32:42;4.00;77.30
17887;DHT22;9069;52.044;7.472;2023-02-28T00:35:10;4.00;77.40
17887;DHT22;9069;52.044;7.472;2023-02-28T00:37:40;4.00;77.50
17887;DHT22;9069;52.044;7.472;2023-02-28T00:40:08;4.00;77.70
17887;DHT22;9069;52.044;7.472;2023-02-28T00:42:36;4.00;77.80
17887;DHT22;9069;52.044;7.472;2023-02-28T00:45:03;4.00;78.10
17887;DHT22;9069;52.044;7.472;2023-02-28T00:47:37;4.00;78.40
17887;DHT22;9069;52.044;7.472;2023-02-28T00:50:04;4.00;78.60
17887;DHT22;9069;52.044;7.472;2023-02-28T00:52:32;4.00;78.80
17887;DHT22;9069;52.044;7.472;2023-02-28T00:54:58;4.00;78.90
17887;DHT22;9069;52.044;7.472;2023-02-28T00:57:25;4.00;79.20
17887;DHT22;9069;52.044;7.472;2023-02-28T00:59:52;4.00;79.30
17887;DHT22;9069;52.044;7.472;2023-02-28T01:02:22;4.00;79.50
17887;DHT22;9069;52.044;7.472;2023-02-28T01:04:52;4.00;79.70
17887;DHT22;9069;52.044;7.472;2023-02-28T01:07:18;4.10;79.80
17887;DHT22;9069;52.044;7.472;2023-02-28T01:09:45;4.10;79.80
17887;DHT22;9069;52.044;7.472;2023-02-28T01:12:12;4.10;80.70
17887;DHT22;9069;52.044;7.472;2023-02-28T01:14:39;4.10;79.90
17887;DHT22;9069;52.044;7.472;2023-02-28T01:17:06;4.10;80.00
17887;DHT22;9069;52.044;7.472;2023-02-28T01:19:34;4.20;80.00
17887;DHT22;9069;52.044;7.472;2023-02-28T01:22:03;4.20;80.00
17887;DHT22;9069;52.044;7.472;2023-02-28T01:24:30;4.20;80.00
17887;DHT22;9069;52.044;7.472;2023-02-28T01:26:59;4.20;79.90
17887;DHT22;9069;52.044;7.472;2023-02-28T01:29:26;4.20;79.90
17887;DHT22;9069;52.044;7.472;2023-02-28T01:31:53;4.20;79.90
17887;DHT22;9069;52.044;7.472;2023-02-28T01:34:20;4.20;79.90
17887;DHT22;9069;52.044;7.472;2023-02-28T01:36:47;4.20;79.70
17887;DHT22;9069;52.044;7.472;2023-02-28T01:39:13;4.30;79.80
17887;DHT22;9069;52.044;7.472;2023-02-28T01:41:40;4.30;79.80
17887;DHT22;9069;52.044;7.472;2023-02-28T01:47:13;4.30;80.00
17887;DHT22;9069;52.044;7.472;2023-02-28T01:49:40;4.30;79.80
17887;DHT22;9069;52.044;7.472;2023-02-28T01:52:08;4.30;79.90
17887;DHT22;9069;52.044;7.472;2023-02-28T01:54:48;4.30;80.00
17887;DHT22;9069;52.044;7.472;2023-02-28T01:57:20;4.30;80.00
17887;DHT22;9069;52.044;7.472;2023-02-28T01:59:56;4.30;80.00
17887;DHT22;9069;52.044;7.472;2023-02-28T02:02:26;4.30;80.10
17887;DHT22;9069;52.044;7.472;2023-02-28T02:04:58;4.30;80.00
17887;DHT22;9069;52.044;7.472;2023-02-28T02:07:32;4.20;80.00
17887;DHT22;9069;52.044;7.472;2023-02-28T02:10:05;4.20;80.10
17887;DHT22;9069;52.044;7.472;2023-02-28T02:15:24;4.20;80.30
17887;DHT22;9069;52.044;7.472;2023-02-28T02:17:55;4.20;80.50
17887;DHT22;9069;52.044;7.472;2023-02-28T02:37:48;4.20;80.70
17887;DHT22;9069;52.044;7.472;2023-02-28T02:40:22;4.20;80.90
17887;DHT22;9069;52.044;7.472;2023-02-28T02:43:04;4.20;80.60
17887;DHT22;9069;52.044;7.472;2023-02-28T02:45:50;4.20;80.60
17887;DHT22;9069;52.044;7.472;2023-02-28T02:48:24;4.20;80.60
17887;DHT22;9069;52.044;7.472;2023-02-28T02:50:55;4.10;80.40
17887;DHT22;9069;52.044;7.472;2023-02-28T02:53:30;4.10;80.50
17887;DHT22;9069;52.044;7.472;2023-02-28T02:56:01;4.10;80.50
17887;DHT22;9069;52.044;7.472;2023-02-28T02:58:35;4.10;80.50
17887;DHT22;9069;52.044;7.472;2023-02-28T03:01:12;4.10;80.50
17887;DHT22;9069;52.044;7.472;2023-02-28T03:03:41;4.00;80.50
17887;DHT22;9069;52.044;7.472;2023-02-28T03:06:08;4.00;80.60
17887;DHT22;9069;52.044;7.472;2023-02-28T03:08:37;4.00;80.70
17887;DHT22;9069;52.044;7.472;2023-02-28T03:11:10;4.00;80.90
17887;DHT22;9069;52.044;7.472;2023-02-28T03:25:33;3.90;81.60
17887;DHT22;9069;52.044;7.472;2023-02-28T03:31:43;3.80;81.40
17887;DHT22;9069;52.044;7.472;2023-02-28T03:36:29;3.70;81.40
17887;DHT22;9069;52.044;7.472;2023-02-28T03:39:11;3.70;81.40
17887;DHT22;9069;52.044;7.472;2023-02-28T03:41:44;3.70;81.90
17887;DHT22;9069;52.044;7.472;2023-02-28T03:44:20;3.60;81.70
17887;DHT22;9069;52.044;7.472;2023-02-28T03:46:54;3.60;81.90
17887;DHT22;9069;52.044;7.472;2023-02-28T03:49:28;3.60;82.20
17887;DHT22;9069;52.044;7.472;2023-02-28T03:52:02;3.60;82.30
17887;DHT22;9069;52.044;7.472;2023-02-28T03:54:37;3.50;82.40
17887;DHT22;9069;52.044;7.472;2023-02-28T03:57:15;3.60;82.70
17887;DHT22;9069;52.044;7.472;2023-02-28T03:59:52;3.50;82.70
17887;DHT22;9069;52.044;7.472;2023-02-28T04:02:21;3.50;82.70
17887;DHT22;9069;52.044;7.472;2023-02-28T04:04:47;3.50;82.60
17887;DHT22;9069;52.044;7.472;2023-02-28T04:07:16;3.50;82.70
17887;DHT22;9069;52.044;7.472;2023-02-28T04:09:43;3.50;82.70
17887;DHT22;9069;52.044;7.472;2023-02-28T04:12:10;3.50;82.70
17887;DHT22;9069;52.044;7.472;2023-02-28T04:14:37;3.40;82.70
17887;DHT22;9069;52.044;7.472;2023-02-28T04:17:04;3.40;82.70
17887;DHT22;9069;52.044;7.472;2023-02-28T04:19:31;3.40;82.70
17887;DHT22;9069;52.044;7.472;2023-02-28T04:21:58;3.40;82.60
17887;DHT22;9069;52.044;7.472;2023-02-28T04:24:26;3.40;82.50
17887;DHT22;9069;52.044;7.472;2023-02-28T04:26:55;3.40;82.60
17887;DHT22;9069;52.044;7.472;2023-02-28T04:29:28;3.40;82.60
17887;DHT22;9069;52.044;7.472;2023-02-28T04:31:56;3.30;82.60
17887;DHT22;9069;52.044;7.472;2023-02-28T04:34:27;3.30;82.50
17887;DHT22;9069;52.044;7.472;2023-02-28T04:36:54;3.30;82.50
17887;DHT22;9069;52.044;7.472;2023-02-28T04:39:38;3.30;82.50
17887;DHT22;9069;52.044;7.472;2023-02-28T04:42:05;3.30;82.50
17887;DHT22;9069;52.044;7.472;2023-02-28T04:44:32;3.30;82.50
17887;DHT22;9069;52.044;7.472;2023-02-28T04:46:58;3.20;82.50
17887;DHT22;9069;52.044;7.472;2023-02-28T04:49:25;3.20;82.40
17887;DHT22;9069;52.044;7.472;2023-02-28T04:51:52;3.20;82.40
17887;DHT22;9069;52.044;7.472;2023-02-28T04:54:19;3.20;82.50
17887;DHT22;9069;52.044;7.472;2023-02-28T04:56:47;3.20;82.40
17887;DHT22;9069;52.044;7.472;2023-02-28T04:59:16;3.20;82.40
17887;DHT22;9069;52.044;7.472;2023-02-28T05:01:47;3.20;82.40
17887;DHT22;9069;52.044;7.472;2023-02-28T05:04:14;3.20;82.50
17887;DHT22;9069;52.044;7.472;2023-02-28T05:06:41;3.10;82.40
17887;DHT22;9069;52.044;7.472;2023-02-28T05:09:08;3.10;82.40
17887;DHT22;9069;52.044;7.472;2023-02-28T05:11:35;3.10;82.50
17887;DHT22;9069;52.044;7.472;2023-02-28T05:14:12;3.10;82.50
17887;DHT22;9069;52.044;7.472;2023-02-28T05:16:39;3.10;82.60
17887;DHT22;9069;52.044;7.472;2023-02-28T05:19:06;3.00;82.50
17887;DHT22;9069;52.044;7.472;2023-02-28T05:21:35;3.00;82.60
17887;DHT22;9069;52.044;7.472;2023-02-28T05:24:05;3.00;82.60
17887;DHT22;9069;52.044;7.472;2023-02-28T05:26:37;3.00;82.70
17887;DHT22;9069;52.044;7.472;2023-02-28T05:29:04;3.00;82.80
17887;DHT22;9069;52.044;7.472;2023-02-28T05:31:31;3.00;82.70
17887;DHT22;9069;52.044;7.472;2023-02-28T05:33:59;2.90;82.70
17887;DHT22;9069;52.044;7.472;2023-02-28T05:36:26;3.00;82.80
17887;DHT22;9069;52.044;7.472;2023-02-28T05:38:53;2.90;82.80
17887;DHT22;9069;52.044;7.472;2023-02-28T05:41:20;2.90;82.80
17887;DHT22;9069;52.044;7.472;2023-02-28T05:43:47;2.90;82.90
17887;DHT22;9069;52.044;7.472;2023-02-28T05:46:15;2.90;82.70
17887;DHT22;9069;52.044;7.472;2023-02-28T05:48:43;2.90;82.80
17887;DHT22;9069;52.044;7.472;2023-02-28T05:51:12;2.90;82.80
17887;DHT22;9069;52.044;7.472;2023-02-28T05:53:38;2.80;82.70
17887;DHT22;9069;52.044;7.472;2023-02-28T05:56:05;2.90;82.90
17887;DHT22;9069;52.044;7.472;2023-02-28T05:58:32;2.80;82.90
17887;DHT22;9069;52.044;7.472;2023-02-28T06:01:18;2.80;83.10
17887;DHT22;9069;52.044;7.472;2023-02-28T06:03:45;2.80;83.20
17887;DHT22;9069;52.044;7.472;2023-02-28T06:06:12;2.80;83.20
17887;DHT22;9069;52.044;7.472;2023-02-28T06:08:39;2.80;83.20
17887;DHT22;9069;52.044;7.472;2023-02-28T06:11:05;2.80;83.20
17887;DHT22;9069;52.044;7.472;2023-02-28T06:13:33;2.80;83.20
17887;DHT22;9069;52.044;7.472;2023-02-28T06:16:03;2.80;83.30
17887;DHT22;9069;52.044;7.472;2023-02-28T06:18:31;2.80;83.40
17887;DHT22;9069;52.044;7.472;2023-02-28T06:20:57;2.70;83.20
17887;DHT22;9069;52.044;7.472;2023-02-28T06:23:24;2.80;83.20
17887;DHT22;9069;52.044;7.472;2023-02-28T06:25:51;2.80;83.10
17887;DHT22;9069;52.044;7.472;2023-02-28T06:28:19;2.70;83.00
17887;DHT22;9069;52.044;7.472;2023-02-28T06:30:46;2.80;83.00
17887;DHT22;9069;52.044;7.472;2023-02-28T06:33:13;2.70;83.00
17887;DHT22;9069;52.044;7.472;2023-02-28T06:35:42;2.70;82.90
17887;DHT22;9069;52.044;7.472;2023-02-28T06:38:09;2.70;82.90
17887;DHT22;9069;52.044;7.472;2023-02-28T06:40:37;2.70;82.80
17887;DHT22;9069;52.044;7.472;2023-02-28T06:43:04;2.70;82.80
17887;DHT22;9069;52.044;7.472;2023-02-28T06:45:31;2.70;82.80
17887;DHT22;9069;52.044;7.472;2023-02-28T06:47:57;2.70;82.80
17887;DHT22;9069;52.044;7.472;2023-02-28T06:50:25;2.70;82.80
17887;DHT22;9069;52.044;7.472;2023-02-28T06:52:51;2.70;82.80
17887;DHT22;9069;52.044;7.472;2023-02-28T06:55:20;2.70;82.80
17887;DHT22;9069;52.044;7.472;2023-02-28T06:57:47;2.70;82.90
17887;DHT22;9069;52.044;7.472;2023-02-28T07:00:14;2.70;82.90
17887;DHT22;9069;52.044;7.472;2023-02-28T07:02:41;2.70;83.00
17887;DHT22;9069;52.044;7.472;2023-02-28T07:05:08;2.70;83.00
17887;DHT22;9069;52.044;7.472;2023-02-28T07:07:35;2.70;83.20
17887;DHT22;9069;52.044;7.472;2023-02-28T07:10:04;2.80;83.40
17887;DHT22;9069;52.044;7.472;2023-02-28T07:12:31;2.80;83.60
17887;DHT22;9069;52.044;7.472;2023-02-28T07:14:58;2.80;84.00
17887;DHT22;9069;52.044;7.472;2023-02-28T07:17:25;2.90;85.10
17887;DHT22;9069;52.044;7.472;2023-02-28T07:19:52;3.00;87.00
17887;DHT22;9069;52.044;7.472;2023-02-28T07:22:19;3.10;88.80
17887;DHT22;9069;52.044;7.472;2023-02-28T07:24:46;3.30;90.00
17887;DHT22;9069;52.044;7.472;2023-02-28T07:27:12;3.50;90.30
17887;DHT22;9069;52.044;7.472;2023-02-28T07:29:52;3.80;90.70
17887;DHT22;9069;52.044;7.472;2023-02-28T07:32:19;4.10;90.50
17887;DHT22;9069;52.044;7.472;2023-02-28T07:34:47;4.50;90.40
17887;DHT22;9069;52.044;7.472;2023-02-28T07:37:14;4.80;90.00
17887;DHT22;9069;52.044;7.472;2023-02-28T07:39:41;5.10;89.00
17887;DHT22;9069;52.044;7.472;2023-02-28T07:42:10;5.40;87.30
17887;DHT22;9069;52.044;7.472;2023-02-28T07:44:39;5.60;84.80
17887;DHT22;9069;52.044;7.472;2023-02-28T07:47:08;5.80;82.30
17887;DHT22;9069;52.044;7.472;2023-02-28T07:49:36;5.90;80.50
17887;DHT22;9069;52.044;7.472;2023-02-28T07:52:04;6.00;79.10
17887;DHT22;9069;52.044;7.472;2023-02-28T07:54:33;6.10;77.80
17887;DHT22;9069;52.044;7.472;2023-02-28T07:56:59;6.00;77.00
17887;DHT22;9069;52.044;7.472;2023-02-28T07:59:26;6.00;76.60
17887;DHT22;9069;52.044;7.472;2023-02-28T08:01:53;6.00;76.20
17887;DHT22;9069;52.044;7.472;2023-02-28T08:04:20;5.90;76.10
17887;DHT22;9069;52.044;7.472;2023-02-28T08:06:47;5.90;76.00
17887;DHT22;9069;52.044;7.472;2023-02-28T08:09:14;5.80;75.60
17887;DHT22;9069;52.044;7.472;2023-02-28T08:11:41;5.80;75.80
17887;DHT22;9069;52.044;7.472;2023-02-28T08:14:08;5.80;76.60
17887;DHT22;9069;52.044;7.472;2023-02-28T08:16:35;5.80;77.30
17887;DHT22;9069;52.044;7.472;2023-02-28T08:19:02;5.90;78.20
17887;DHT22;9069;52.044;7.472;2023-02-28T08:21:29;6.00;78.80
17887;DHT22;9069;52.044;7.472;2023-02-28T08:23:57;6.20;79.40
17887;DHT22;9069;52.044;7.472;2023-02-28T08:26:23;6.40;80.50
17887;DHT22;9069;52.044;7.472;2023-02-28T08:28:50;6.60;81.70
17887;DHT22;9069;52.044;7.472;2023-02-28T08:31:17;6.90;82.00
17887;DHT22;9069;52.044;7.472;2023-02-28T08:33:45;7.20;82.00
17887;DHT22;9069;52.044;7.472;2023-02-28T08:36:11;7.50;81.40
17887;DHT22;9069;52.044;7.472;2023-02-28T08:38:39;7.80;80.80
17887;DHT22;9069;52.044;7.472;2023-02-28T08:41:07;8.20;81.20
17887;DHT22;9069;52.044;7.472;2023-02-28T08:43:36;8.50;79.50
17887;DHT22;9069;52.044;7.472;2023-02-28T08:46:04;8.90;79.10
17887;DHT22;9069;52.044;7.472;2023-02-28T08:48:32;9.20;78.00
17887;DHT22;9069;52.044;7.472;2023-02-28T08:51:09;9.50;76.80
17887;DHT22;9069;52.044;7.472;2023-02-28T08:53:37;9.90;75.20
17887;DHT22;9069;52.044;7.472;2023-02-28T08:56:09;10.20;75.30
17887;DHT22;9069;52.044;7.472;2023-02-28T08:58:36;10.50;74.30
17887;DHT22;9069;52.044;7.472;2023-02-28T09:01:20;10.80;74.20
17887;DHT22;9069;52.044;7.472;2023-02-28T09:03:49;11.20;71.50
17887;DHT22;9069;52.044;7.472;2023-02-28T09:06:17;11.50;71.70
17887;DHT22;9069;52.044;7.472;2023-02-28T09:08:45;11.80;71.40
17887;DHT22;9069;52.044;7.472;2023-02-28T09:11:12;12.10;70.70
17887;DHT22;9069;52.044;7.472;2023-02-28T09:13:39;12.40;69.70
17887;DHT22;9069;52.044;7.472;2023-02-28T09:16:08;12.60;69.30
17887;DHT22;9069;52.044;7.472;2023-02-28T09:18:37;12.80;67.90
17887;DHT22;9069;52.044;7.472;2023-02-28T09:21:10;13.10;66.70
17887;DHT22;9069;52.044;7.472;2023-02-28T09:23:44;13.20;64.30
17887;DHT22;9069;52.044;7.472;2023-02-28T09:26:26;13.40;65.00
17887;DHT22;9069;52.044;7.472;2023-02-28T09:29:04;13.50;64.20
17887;DHT22;9069;52.044;7.472;2023-02-28T09:31:31;13.70;64.10
17887;DHT22;9069;52.044;7.472;2023-02-28T09:33:58;13.80;63.90
17887;DHT22;9069;52.044;7.472;2023-02-28T09:36:26;13.90;61.90
17887;DHT22;9069;52.044;7.472;2023-02-28T09:39:10;14.00;62.30
17887;DHT22;9069;52.044;7.472;2023-02-28T09:41:40;14.10;60.90
17887;DHT22;9069;52.044;7.472;2023-02-28T09:44:19;14.20;60.80
17887;DHT22;9069;52.044;7.472;2023-02-28T09:46:52;14.20;60.60
17887;DHT22;9069;52.044;7.472;2023-02-28T09:49:24;14.40;60.10
17887;DHT22;9069;52.044;7.472;2023-02-28T09:52:10;14.50;59.70
17887;DHT22;9069;52.044;7.472;2023-02-28T09:54:38;14.60;57.70
17887;DHT22;9069;52.044;7.472;2023-02-28T09:57:10;14.70;58.90
17887;DHT22;9069;52.044;7.472;2023-02-28T09:59:58;14.80;59.30
17887;DHT22;9069;52.044;7.472;2023-02-28T10:06:28;15.00;56.30
17887;DHT22;9069;52.044;7.472;2023-02-28T10:08:55;15.20;55.60
17887;DHT22;9069;52.044;7.472;2023-02-28T10:11:25;15.30;55.50
17887;DHT22;9069;52.044;7.472;2023-02-28T10:13:59;15.40;54.70
17887;DHT22;9069;52.044;7.472;2023-02-28T10:19:24;15.70;55.10
17887;DHT22;9069;52.044;7.472;2023-02-28T10:22:03;15.80;54.40
17887;DHT22;9069;52.044;7.472;2023-02-28T10:24:43;16.00;54.30
17887;DHT22;9069;52.044;7.472;2023-02-28T10:27:21;16.10;54.40
17887;DHT22;9069;52.044;7.472;2023-02-28T10:29:54;16.20;53.90
17887;DHT22;9069;52.044;7.472;2023-02-28T10:32:27;16.30;52.50
17887;DHT22;9069;52.044;7.472;2023-02-28T10:35:06;16.40;51.70
17887;DHT22;9069;52.044;7.472;2023-02-28T10:37:33;16.40;52.30
17887;DHT22;9069;52.044;7.472;2023-02-28T10:40:06;16.30;52.60
17887;DHT22;9069;52.044;7.472;2023-02-28T10:42:33;16.20;51.40
17887;DHT22;9069;52.044;7.472;2023-02-28T10:45:15;16.00;51.60
17887;DHT22;9069;52.044;7.472;2023-02-28T10:47:52;15.80;48.60
17887;DHT22;9069;52.044;7.472;2023-02-28T10:53:30;15.30;47.90
17887;DHT22;9069;52.044;7.472;2023-02-28T10:58:58;14.50;48.50
17887;DHT22;9069;52.044;7.472;2023-02-28T11:01:40;14.20;47.20
17887;DHT22;9069;52.044;7.472;2023-02-28T11:09:39;13.10;49.20
17887;DHT22;9069;52.044;7.472;2023-02-28T11:12:18;12.80;48.60
17887;DHT22;9069;52.044;7.472;2023-02-28T11:17:38;12.30;48.60
17887;DHT22;9069;52.044;7.472;2023-02-28T11:20:07;12.00;49.70
17887;DHT22;9069;52.044;7.472;2023-02-28T11:22:45;11.70;49.90
17887;DHT22;9069;52.044;7.472;2023-02-28T11:25:24;11.40;50.10
17887;DHT22;9069;52.044;7.472;2023-02-28T11:28:00;11.20;49.90
17887;DHT22;9069;52.044;7.472;2023-02-28T11:32:57;10.90;50.60
17887;DHT22;9069;52.044;7.472;2023-02-28T11:35:28;10.70;51.20
17887;DHT22;9069;52.044;7.472;2023-02-28T11:37:57;10.60;51.30
17887;DHT22;9069;52.044;7.472;2023-02-28T11:40:30;10.40;51.30
17887;DHT22;9069;52.044;7.472;2023-02-28T11:43:11;10.30;51.50
17887;DHT22;9069;52.044;7.472;2023-02-28T11:49:16;10.10;51.90
17887;DHT22;9069;52.044;7.472;2023-02-28T11:57:35;9.90;52.60
17887;DHT22;9069;52.044;7.472;2023-02-28T12:06:01;9.60;52.70
17887;DHT22;9069;52.044;7.472;2023-02-28T12:09:36;9.50;52.60
17887;DHT22;9069;52.044;7.472;2023-02-28T12:22:35;9.30;53.60
17887;DHT22;9069;52.044;7.472;2023-02-28T12:27:37;9.20;53.80
17887;DHT22;9069;52.044;7.472;2023-02-28T12:30:32;9.20;53.90
17887;DHT22;9069;52.044;7.472;2023-02-28T12:33:07;9.10;53.50
17887;DHT22;9069;52.044;7.472;2023-02-28T12:35:44;9.10;53.90
17887;DHT22;9069;52.044;7.472;2023-02-28T12:38:19;9.10;54.30
17887;DHT22;9069;52.044;7.472;2023-02-28T12:41:03;9.00;54.50
17887;DHT22;9069;52.044;7.472;2023-02-28T12:43:55;9.00;54.60
17887;DHT22;9069;52.044;7.472;2023-02-28T12:46:34;9.00;54.70
17887;DHT22;9069;52.044;7.472;2023-02-28T12:49:16;9.00;55.00
17887;DHT22;9069;52.044;7.472;2023-02-28T12:51:44;9.00;55.20
17887;DHT22;9069;52.044;7.472;2023-02-28T12:54:35;9.00;55.50
17887;DHT22;9069;52.044;7.472;2023-02-28T12:59:42;9.00;55.50
17887;DHT22;9069;52.044;7.472;2023-02-28T13:11:05;8.90;55.30
17887;DHT22;9069;52.044;7.472;2023-02-28T13:13:45;9.00;55.80
17887;DHT22;9069;52.044;7.472;2023-02-28T13:16:12;8.90;55.50
17887;DHT22;9069;52.044;7.472;2023-02-28T13:18:44;8.90;55.50
17887;DHT22;9069;52.044;7.472;2023-02-28T13:21:27;8.90;55.80
17887;DHT22;9069;52.044;7.472;2023-02-28T13:24:03;8.90;55.50
17887;DHT22;9069;52.044;7.472;2023-02-28T13:28:58;8.80;56.00
17887;DHT22;9069;52.044;7.472;2023-02-28T13:31:25;8.90;55.90
17887;DHT22;9069;52.044;7.472;2023-02-28T13:36:28;8.90;55.70
17887;DHT22;9069;52.044;7.472;2023-02-28T13:39:11;8.90;55.90
17887;DHT22;9069;52.044;7.472;2023-02-28T13:41:50;8.90;55.90
17887;DHT22;9069;52.044;7.472;2023-02-28T13:44:22;8.90;56.00
17887;DHT22;9069;52.044;7.472;2023-02-28T14:05:37;8.80;56.60
17887;DHT22;9069;52.044;7.472;2023-02-28T14:08:22;8.80;56.30
17887;DHT22;9069;52.044;7.472;2023-02-28T14:11:02;8.80;56.50
17887;DHT22;9069;52.044;7.472;2023-02-28T14:13:44;8.80;56.80
17887;DHT22;9069;52.044;7.472;2023-02-28T14:16:25;8.70;56.40
17887;DHT22;9069;52.044;7.472;2023-02-28T14:19:00;8.70;56.60
17887;DHT22;9069;52.044;7.472;2023-02-28T14:21:31;8.70;56.70
17887;DHT22;9069;52.044;7.472;2023-02-28T14:24:02;8.70;56.60
17887;DHT22;9069;52.044;7.472;2023-02-28T14:26:44;8.70;56.70
17887;DHT22;9069;52.044;7.472;2023-02-28T14:29:46;8.70;57.00
17887;DHT22;9069;52.044;7.472;2023-02-28T14:32:28;8.70;56.60
17887;DHT22;9069;52.044;7.472;2023-02-28T14:37:51;8.70;57.10
17887;DHT22;9069;52.044;7.472;2023-02-28T14:40:39;8.70;57.40
17887;DHT22;9069;52.044;7.472;2023-02-28T14:43:20;8.70;57.20
17887;DHT22;9069;52.044;7.472;2023-02-28T14:45:56;8.70;57.40
17887;DHT22;9069;52.044;7.472;2023-02-28T14:48:25;8.70;57.50
17887;DHT22;9069;52.044;7.472;2023-02-28T14:50:56;8.70;57.50
17887;DHT22;9069;52.044;7.472;2023-02-28T14:53:27;8.70;57.50
17887;DHT22;9069;52.044;7.472;2023-02-28T14:55:54;8.70;57.30
17887;DHT22;9069;52.044;7.472;2023-02-28T14:58:30;8.70;57.50
17887;DHT22;9069;52.044;7.472;2023-02-28T15:01:00;8.70;57.60
17887;DHT22;9069;52.044;7.472;2023-02-28T15:03:32;8.70;57.80
17887;DHT22;9069;52.044;7.472;2023-02-28T15:06:12;8.70;57.80
17887;DHT22;9069;52.044;7.472;2023-02-28T15:08:40;8.70;57.90
17887;DHT22;9069;52.044;7.472;2023-02-28T15:11:18;8.70;58.20
17887;DHT22;9069;52.044;7.472;2023-02-28T15:13:54;8.70;58.10
17887;DHT22;9069;52.044;7.472;2023-02-28T15:19:34;8.70;92.50
17887;DHT22;9069;52.044;7.472;2023-02-28T15:22:06;8.80;57.70
17887;DHT22;9069;52.044;7.472;2023-02-28T15:24:49;8.70;58.30
17887;DHT22;9069;52.044;7.472;2023-02-28T15:27:29;8.60;57.70
17887;DHT22;9069;52.044;7.472;2023-02-28T15:30:04;8.70;58.20
17887;DHT22;9069;52.044;7.472;2023-02-28T15:32:37;8.60;58.50
17887;DHT22;9069;52.044;7.472;2023-02-28T15:38:02;8.60;58.60
17887;DHT22;9069;52.044;7.472;2023-02-28T15:40:35;8.60;58.70
17887;DHT22;9069;52.044;7.472;2023-02-28T15:43:07;8.60;58.80
17887;DHT22;9069;52.044;7.472;2023-02-28T15:46:01;8.60;58.90
17887;DHT22;9069;52.044;7.472;2023-02-28T15:48:36;8.60;58.90
17887;DHT22;9069;52.044;7.472;2023-02-28T15:51:30;8.60;58.80
17887;DHT22;9069;52.044;7.472;2023-02-28T15:54:07;8.60;58.70
17887;DHT22;9069;52.044;7.472;2023-02-28T15:56:46;8.50;58.60
17887;DHT22;9069;52.044;7.472;2023-02-28T15:59:17;8.50;58.70
17887;DHT22;9069;52.044;7.472;2023-02-28T16:01:44;8.50;58.90
17887;DHT22;9069;52.044;7.472;2023-02-28T16:04:20;8.50;59.00
17887;DHT22;9069;52.044;7.472;2023-02-28T16:09:24;8.40;59.20
17887;DHT22;9069;52.044;7.472;2023-02-28T16:11:53;8.40;59.20
17887;DHT22;9069;52.044;7.472;2023-02-28T16:14:25;8.40;59.20
17887;DHT22;9069;52.044;7.472;2023-02-28T16:17:05;8.40;59.30
17887;DHT22;9069;52.044;7.472;2023-02-28T16:19:33;8.30;59.30
17887;DHT22;9069;52.044;7.472;2023-02-28T16:22:00;8.30;59.50
17887;DHT22;9069;52.044;7.472;2023-02-28T16:24:27;8.30;59.60
17887;DHT22;9069;52.044;7.472;2023-02-28T16:26:55;8.30;59.60
17887;DHT22;9069;52.044;7.472;2023-02-28T16:29:26;8.30;59.50
17887;DHT22;9069;52.044;7.472;2023-02-28T16:31:54;8.30;59.60
17887;DHT22;9069;52.044;7.472;2023-02-28T16:34:21;8.20;59.60
17887;DHT22;9069;52.044;7.472;2023-02-28T16:36:49;8.20;59.70
17887;DHT22;9069;52.044;7.472;2023-02-28T16:39:16;8.20;59.70
17887;DHT22;9069;52.044;7.472;2023-02-28T16:41:44;8.20;59.80
17887;DHT22;9069;52.044;7.472;2023-02-28T16:44:29;8.10;59.70
17887;DHT22;9069;52.044;7.472;2023-02-28T16:46:59;8.60;60.00
17887;DHT22;9069;52.044;7.472;2023-02-28T16:49:27;8.10;59.90
17887;DHT22;9069;52.044;7.472;2023-02-28T16:51:54;8.00;60.00
17887;DHT22;9069;52.044;7.472;2023-02-28T16:54:21;8.00;60.20
17887;DHT22;9069;52.044;7.472;2023-02-28T16:56:48;8.00;60.20
17887;DHT22;9069;52.044;7.472;2023-02-28T16:59:19;7.90;60.20
17887;DHT22;9069;52.044;7.472;2023-02-28T17:01:47;7.90;60.30
17887;DHT22;9069;52.044;7.472;2023-02-28T17:04:15;7.90;60.30
17887;DHT22;9069;52.044;7.472;2023-02-28T17:06:42;7.90;60.40
17887;DHT22;9069;52.044;7.472;2023-02-28T17:09:21;7.80;60.40
17887;DHT22;9069;52.044;7.472;2023-02-28T17:11:53;7.80;60.40
17887;DHT22;9069;52.044;7.472;2023-02-28T17:14:21;7.70;60.50
17887;DHT22;9069;52.044;7.472;2023-02-28T17:16:49;7.70;60.60
17887;DHT22;9069;52.044;7.472;2023-02-28T17:19:16;7.70;60.60
17887;DHT22;9069;52.044;7.472;2023-02-28T17:21:43;7.60;60.50
17887;DHT22;9069;52.044;7.472;2023-02-28T17:24:10;7.60;60.50
17887;DHT22;9069;52.044;7.472;2023-02-28T17:26:45;7.60;60.60
17887;DHT22;9069;52.044;7.472;2023-02-28T17:29:20;7.50;60.70
17887;DHT22;9069;52.044;7.472;2023-02-28T17:31:47;7.50;60.80
17887;DHT22;9069;52.044;7.472;2023-02-28T17:34:14;7.40;60.90
17887;DHT22;9069;52.044;7.472;2023-02-28T17:36:46;7.40;61.10
17887;DHT22;9069;52.044;7.472;2023-02-28T17:39:14;7.30;61.10
17887;DHT22;9069;52.044;7.472;2023-02-28T17:41:41;7.30;61.00
17887;DHT22;9069;52.044;7.472;2023-02-28T17:44:08;7.30;61.10
17887;DHT22;9069;52.044;7.472;2023-02-28T17:46:35;7.20;61.10
17887;DHT22;9069;52.044;7.472;2023-02-28T17:49:02;7.20;61.20
17887;DHT22;9069;52.044;7.472;2023-02-28T17:51:29;7.20;61.30
17887;DHT22;9069;52.044;7.472;2023-02-28T17:53:56;7.10;61.20
17887;DHT22;9069;52.044;7.472;2023-02-28T17:56:24;7.10;61.30
17887;DHT22;9069;52.044;7.472;2023-02-28T17:58:53;7.10;61.40
17887;DHT22;9069;52.044;7.472;2023-02-28T18:01:21;7.00;61.50
17887;DHT22;9069;52.044;7.472;2023-02-28T18:03:49;7.00;61.50
17887;DHT22;9069;52.044;7.472;2023-02-28T18:06:28;6.90;61.50
17887;DHT22;9069;52.044;7.472;2023-02-28T18:08:57;6.90;61.80
17887;DHT22;9069;52.044;7.472;2023-02-28T18:11:24;6.80;61.80
17887;DHT22;9069;52.044;7.472;2023-02-28T18:13:53;6.80;61.80
17887;DHT22;9069;52.044;7.472;2023-02-28T18:16:22;6.70;67.70
17887;DHT22;9069;52.044;7.472;2023-02-28T18:18:49;6.70;61.20
17887;DHT22;9069;52.044;7.472;2023-02-28T18:21:16;6.80;69.00
17887;DHT22;9069;52.044;7.472;2023-02-28T18:23:43;6.70;61.50
17887;DHT22;9069;52.044;7.472;2023-02-28T18:26:15;6.60;62.10
17887;DHT22;9069;52.044;7.472;2023-02-28T18:28:42;6.60;62.20
17887;DHT22;9069;52.044;7.472;2023-02-28T18:31:18;6.60;62.40
17887;DHT22;9069;52.044;7.472;2023-02-28T18:33:48;6.50;62.50
17887;DHT22;9069;52.044;7.472;2023-02-28T18:36:16;6.40;67.70
17887;DHT22;9069;52.044;7.472;2023-02-28T18:38:44;6.50;62.00
17887;DHT22;9069;52.044;7.472;2023-02-28T18:41:11;6.40;62.70
17887;DHT22;9069;52.044;7.472;2023-02-28T18:43:38;6.40;62.80